sensor_id;sensor_type;location;lat;lon;timestamp;pressure;altitude;pressure_sealevel;temperature
68012;BMP180;54794;48.348;7.878;2023-04-01T00:01:48;97928.00;;;10.40
68012;BMP180;54794;48.348;7.878;2023-04-01T00:04:15;97931.00;;;10.30
68012;BMP180;54794;48.348;7.878;2023-04-01T00:06:42;97933.00;;;10.30
68012;BMP180;54794;48.348;7.878;2023-04-01T00:09:09;97941.00;;;10.30
68012;BMP180;54794;48.348;7.878;2023-04-01T00:11:36;97933.00;;;10.30
68012;BMP180;54794;48.348;7.878;2023-04-01T00:14:03;97933.00;;;10.10
68012;BMP180;54794;48.348;7.878;2023-04-01T00:16:30;97923.00;;;10.20
68012;BMP180;54794;48.348;7.878;2023-04-01T00:18:57;97919.00;;;10.20
68012;BMP180;54794;48.348;7.878;2023-04-01T00:21:24;97923.00;;;10.20
68012;BMP180;54794;48.348;7.878;2023-04-01T00:23:51;97921.00;;;10.20
68012;BMP180;54794;48.348;7.878;2023-04-01T00:26:20;97924.00;;;10.20
68012;BMP180;54794;48.348;7.878;2023-04-01T00:28:49;97931.00;;;10.10
68012;BMP180;54794;48.348;7.878;2023-04-01T00:31:16;97929.00;;;10.10
68012;BMP180;54794;48.348;7.878;2023-04-01T00:33:43;97927.00;;;10.10
68012;BMP180;54794;48.348;7.878;2023-04-01T00:36:18;97918.00;;;10.20
68012;BMP180;54794;48.348;7.878;2023-04-01T00:38:46;97927.00;;;10.10
68012;BMP180;54794;48.348;7.878;2023-04-01T00:41:15;97930.00;;;10.10
68012;BMP180;54794;48.348;7.878;2023-04-01T00:43:47;97932.00;;;10.10
68012;BMP180;54794;48.348;7.878;2023-04-01T00:46:15;97950.00;;;9.90
68012;BMP180;54794;48.348;7.878;2023-04-01T00:48:48;97941.00;;;9.90
68012;BMP180;54794;48.348;7.878;2023-04-01T00:51:37;97949.00;;;9.90
68012;BMP180;54794;48.348;7.878;2023-04-01T00:54:06;97942.00;;;9.80
68012;BMP180;54794;48.348;7.878;2023-04-01T00:56:39;97946.00;;;9.80
68012;BMP180;54794;48.348;7.878;2023-04-01T00:59:14;97940.00;;;9.70
68012;BMP180;54794;48.348;7.878;2023-04-01T01:01:42;97949.00;;;9.80
68012;BMP180;54794;48.348;7.878;2023-04-01T01:04:28;97950.00;;;9.60
68012;BMP180;54794;48.348;7.878;2023-04-01T01:10:02;97946.00;;;9.70
68012;BMP180;54794;48.348;7.878;2023-04-01T01:18:33;97932.00;;;9.70
68012;BMP180;54794;48.348;7.878;2023-04-01T01:21:49;97943.00;;;9.50
68012;BMP180;54794;48.348;7.878;2023-04-01T01:27:11;97956.00;;;9.60
68012;BMP180;54794;48.348;7.878;2023-04-01T01:33:24;97953.00;;;9.60
68012;BMP180;54794;48.348;7.878;2023-04-01T01:35:56;97944.00;;;9.70
68012;BMP180;54794;48.348;7.878;2023-04-01T01:38:31;97954.00;;;9.70
68012;BMP180;54794;48.348;7.878;2023-04-01T01:41:00;97949.00;;;9.70
68012;BMP180;54794;48.348;7.878;2023-04-01T01:43:38;97946.00;;;9.60
68012;BMP180;54794;48.348;7.878;2023-04-01T01:46:13;97944.00;;;9.60
68012;BMP180;54794;48.348;7.878;2023-04-01T01:48:44;97940.00;;;9.70
68012;BMP180;54794;48.348;7.878;2023-04-01T01:51:12;97935.00;;;9.70
68012;BMP180;54794;48.348;7.878;2023-04-01T01:53:39;97950.00;;;9.70
68012;BMP180;54794;48.348;7.878;2023-04-01T01:56:06;97932.00;;;9.60
68012;BMP180;54794;48.348;7.878;2023-04-01T01:58:44;97935.00;;;9.60
68012;BMP180;54794;48.348;7.878;2023-04-01T02:01:18;97933.00;;;9.60
68012;BMP180;54794;48.348;7.878;2023-04-01T02:03:47;97925.00;;;9.40
68012;BMP180;54794;48.348;7.878;2023-04-01T02:06:19;97934.00;;;9.40
68012;BMP180;54794;48.348;7.878;2023-04-01T02:11:30;97939.00;;;9.60
68012;BMP180;54794;48.348;7.878;2023-04-01T02:14:07;97944.00;;;9.50
68012;BMP180;54794;48.348;7.878;2023-04-01T02:19:11;97935.00;;;9.50
68012;BMP180;54794;48.348;7.878;2023-04-01T02:21:42;97941.00;;;9.60
68012;BMP180;54794;48.348;7.878;2023-04-01T02:24:13;97937.00;;;9.60
68012;BMP180;54794;48.348;7.878;2023-04-01T02:26:44;97930.00;;;9.70
68012;BMP180;54794;48.348;7.878;2023-04-01T02:29:12;97931.00;;;9.70
68012;BMP180;54794;48.348;7.878;2023-04-01T02:31:40;97923.00;;;9.70
68012;BMP180;54794;48.348;7.878;2023-04-01T02:34:08;97928.00;;;9.70
68012;BMP180;54794;48.348;7.878;2023-04-01T02:36:36;97921.00;;;9.80
68012;BMP180;54794;48.348;7.878;2023-04-01T02:39:04;97924.00;;;9.70
68012;BMP180;54794;48.348;7.878;2023-04-01T02:41:39;97921.00;;;9.80
68012;BMP180;54794;48.348;7.878;2023-04-01T02:44:06;97912.00;;;9.80
68012;BMP180;54794;48.348;7.878;2023-04-01T02:46:34;97913.00;;;9.80
68012;BMP180;54794;48.348;7.878;2023-04-01T02:49:01;97914.00;;;9.90
68012;BMP180;54794;48.348;7.878;2023-04-01T02:51:28;97911.00;;;9.90
68012;BMP180;54794;48.348;7.878;2023-04-01T02:53:57;97903.00;;;9.90
68012;BMP180;54794;48.348;7.878;2023-04-01T02:56:24;97910.00;;;9.90
68012;BMP180;54794;48.348;7.878;2023-04-01T02:58:53;97902.00;;;9.90
68012;BMP180;54794;48.348;7.878;2023-04-01T03:01:21;97903.00;;;9.90
68012;BMP180;54794;48.348;7.878;2023-04-01T03:03:49;97895.00;;;9.90
68012;BMP180;54794;48.348;7.878;2023-04-01T03:06:17;97901.00;;;9.80
68012;BMP180;54794;48.348;7.878;2023-04-01T03:08:44;97896.00;;;9.90
68012;BMP180;54794;48.348;7.878;2023-04-01T03:11:12;97886.00;;;9.90
68012;BMP180;54794;48.348;7.878;2023-04-01T03:13:39;97887.00;;;9.80
68012;BMP180;54794;48.348;7.878;2023-04-01T03:16:07;97891.00;;;9.80
68012;BMP180;54794;48.348;7.878;2023-04-01T03:18:34;97901.00;;;9.90
68012;BMP180;54794;48.348;7.878;2023-04-01T03:21:33;97897.00;;;9.80
68012;BMP180;54794;48.348;7.878;2023-04-01T03:24:00;97890.00;;;9.80
68012;BMP180;54794;48.348;7.878;2023-04-01T03:26:26;97889.00;;;9.80
68012;BMP180;54794;48.348;7.878;2023-04-01T03:28:54;97899.00;;;9.80
68012;BMP180;54794;48.348;7.878;2023-04-01T03:31:22;97899.00;;;9.90
68012;BMP180;54794;48.348;7.878;2023-04-01T03:33:49;97900.00;;;9.80
68012;BMP180;54794;48.348;7.878;2023-04-01T03:36:17;97900.00;;;9.70
68012;BMP180;54794;48.348;7.878;2023-04-01T03:38:44;97902.00;;;9.80
68012;BMP180;54794;48.348;7.878;2023-04-01T03:41:14;97902.00;;;9.70
68012;BMP180;54794;48.348;7.878;2023-04-01T03:43:42;97897.00;;;9.80
68012;BMP180;54794;48.348;7.878;2023-04-01T03:46:08;97893.00;;;9.80
68012;BMP180;54794;48.348;7.878;2023-04-01T03:48:35;97892.00;;;9.80
68012;BMP180;54794;48.348;7.878;2023-04-01T03:51:07;97898.00;;;9.80
68012;BMP180;54794;48.348;7.878;2023-04-01T03:53:34;97907.00;;;9.70
68012;BMP180;54794;48.348;7.878;2023-04-01T03:56:06;97880.00;;;9.80
68012;BMP180;54794;48.348;7.878;2023-04-01T03:58:36;97880.00;;;9.70
68012;BMP180;54794;48.348;7.878;2023-04-01T04:01:03;97881.00;;;9.50
68012;BMP180;54794;48.348;7.878;2023-04-01T04:03:29;97879.00;;;9.60
68012;BMP180;54794;48.348;7.878;2023-04-01T04:05:57;97881.00;;;9.50
68012;BMP180;54794;48.348;7.878;2023-04-01T04:08:23;97876.00;;;9.50
68012;BMP180;54794;48.348;7.878;2023-04-01T04:10:57;97870.00;;;9.50
68012;BMP180;54794;48.348;7.878;2023-04-01T04:13:24;97873.00;;;9.40
68012;BMP180;54794;48.348;7.878;2023-04-01T04:15:51;97877.00;;;9.50
68012;BMP180;54794;48.348;7.878;2023-04-01T04:18:18;97870.00;;;9.50
68012;BMP180;54794;48.348;7.878;2023-04-01T04:20:46;97871.00;;;9.50
68012;BMP180;54794;48.348;7.878;2023-04-01T04:23:15;97874.00;;;9.50
68012;BMP180;54794;48.348;7.878;2023-04-01T04:25:53;97870.00;;;9.50
68012;BMP180;54794;48.348;7.878;2023-04-01T04:28:20;97871.00;;;9.50
68012;BMP180;54794;48.348;7.878;2023-04-01T04:30:47;97871.00;;;9.60
68012;BMP180;54794;48.348;7.878;2023-04-01T04:33:14;97872.00;;;9.60
68012;BMP180;54794;48.348;7.878;2023-04-01T04:35:41;97872.00;;;9.50
68012;BMP180;54794;48.348;7.878;2023-04-01T04:38:08;97879.00;;;9.50
68012;BMP180;54794;48.348;7.878;2023-04-01T04:40:37;97879.00;;;9.60
68012;BMP180;54794;48.348;7.878;2023-04-01T04:43:04;97869.00;;;9.40
68012;BMP180;54794;48.348;7.878;2023-04-01T04:45:31;97878.00;;;9.40
68012;BMP180;54794;48.348;7.878;2023-04-01T04:47:58;97870.00;;;9.50
68012;BMP180;54794;48.348;7.878;2023-04-01T04:50:25;97882.00;;;9.50
68012;BMP180;54794;48.348;7.878;2023-04-01T04:52:53;97874.00;;;9.50
68012;BMP180;54794;48.348;7.878;2023-04-01T04:55:20;97868.00;;;9.50
68012;BMP180;54794;48.348;7.878;2023-04-01T04:57:47;97873.00;;;9.50
68012;BMP180;54794;48.348;7.878;2023-04-01T05:00:15;97869.00;;;9.50
68012;BMP180;54794;48.348;7.878;2023-04-01T05:02:42;97863.00;;;9.60
68012;BMP180;54794;48.348;7.878;2023-04-01T05:05:09;97855.00;;;9.60
68012;BMP180;54794;48.348;7.878;2023-04-01T05:07:37;97844.00;;;9.50
68012;BMP180;54794;48.348;7.878;2023-04-01T05:10:04;97852.00;;;9.50
68012;BMP180;54794;48.348;7.878;2023-04-01T05:12:32;97869.00;;;9.60
68012;BMP180;54794;48.348;7.878;2023-04-01T05:15:04;97844.00;;;9.50
68012;BMP180;54794;48.348;7.878;2023-04-01T05:17:32;97850.00;;;9.60
68012;BMP180;54794;48.348;7.878;2023-04-01T05:19:59;97848.00;;;9.50
68012;BMP180;54794;48.348;7.878;2023-04-01T05:22:26;97850.00;;;9.50
68012;BMP180;54794;48.348;7.878;2023-04-01T05:24:53;97848.00;;;9.50
68012;BMP180;54794;48.348;7.878;2023-04-01T05:27:20;97852.00;;;9.60
68012;BMP180;54794;48.348;7.878;2023-04-01T05:29:47;97861.00;;;9.50
68012;BMP180;54794;48.348;7.878;2023-04-01T05:32:14;97857.00;;;9.60
68012;BMP180;54794;48.348;7.878;2023-04-01T05:34:41;97863.00;;;9.50
68012;BMP180;54794;48.348;7.878;2023-04-01T05:37:08;97846.00;;;9.50
68012;BMP180;54794;48.348;7.878;2023-04-01T05:39:39;97846.00;;;9.60
68012;BMP180;54794;48.348;7.878;2023-04-01T05:42:06;97852.00;;;9.60
68012;BMP180;54794;48.348;7.878;2023-04-01T05:44:35;97837.00;;;9.60
68012;BMP180;54794;48.348;7.878;2023-04-01T05:47:04;97841.00;;;9.50
68012;BMP180;54794;48.348;7.878;2023-04-01T05:49:33;97841.00;;;9.60
68012;BMP180;54794;48.348;7.878;2023-04-01T05:51:59;97832.00;;;9.60
68012;BMP180;54794;48.348;7.878;2023-04-01T05:54:26;97838.00;;;9.80
68012;BMP180;54794;48.348;7.878;2023-04-01T05:56:53;97833.00;;;9.70
68012;BMP180;54794;48.348;7.878;2023-04-01T05:59:20;97843.00;;;9.80
68012;BMP180;54794;48.348;7.878;2023-04-01T06:01:47;97836.00;;;9.70
68012;BMP180;54794;48.348;7.878;2023-04-01T06:04:16;97840.00;;;9.80
68012;BMP180;54794;48.348;7.878;2023-04-01T06:06:44;97844.00;;;9.80
68012;BMP180;54794;48.348;7.878;2023-04-01T06:09:17;97847.00;;;9.80
68012;BMP180;54794;48.348;7.878;2023-04-01T06:20:12;97841.00;;;9.90
68012;BMP180;54794;48.348;7.878;2023-04-01T06:23:29;97843.00;;;9.90
68012;BMP180;54794;48.348;7.878;2023-04-01T06:26:37;97838.00;;;9.90
68012;BMP180;54794;48.348;7.878;2023-04-01T06:29:39;97844.00;;;10.00
68012;BMP180;54794;48.348;7.878;2023-04-01T06:35:03;97849.00;;;10.00
68012;BMP180;54794;48.348;7.878;2023-04-01T06:54:52;97842.00;;;10.00
68012;BMP180;54794;48.348;7.878;2023-04-01T06:57:32;97847.00;;;10.10
68012;BMP180;54794;48.348;7.878;2023-04-01T07:00:11;97843.00;;;10.00
68012;BMP180;54794;48.348;7.878;2023-04-01T07:02:56;97844.00;;;10.20
68012;BMP180;54794;48.348;7.878;2023-04-01T07:05:35;97849.00;;;10.20
68012;BMP180;54794;48.348;7.878;2023-04-01T07:08:13;97860.00;;;10.20
68012;BMP180;54794;48.348;7.878;2023-04-01T07:11:02;97852.00;;;10.30
68012;BMP180;54794;48.348;7.878;2023-04-01T07:13:51;97861.00;;;10.20
68012;BMP180;54794;48.348;7.878;2023-04-01T07:16:34;97847.00;;;10.20
68012;BMP180;54794;48.348;7.878;2023-04-01T07:22:42;97862.00;;;10.20
68012;BMP180;54794;48.348;7.878;2023-04-01T07:25:17;97859.00;;;10.30
68012;BMP180;54794;48.348;7.878;2023-04-01T07:27:46;97860.00;;;10.30
68012;BMP180;54794;48.348;7.878;2023-04-01T07:30:20;97859.00;;;10.30
68012;BMP180;54794;48.348;7.878;2023-04-01T07:36:30;97864.00;;;10.30
68012;BMP180;54794;48.348;7.878;2023-04-01T07:39:29;97871.00;;;10.10
68012;BMP180;54794;48.348;7.878;2023-04-01T07:42:38;97865.00;;;10.40
68012;BMP180;54794;48.348;7.878;2023-04-01T07:45:28;97874.00;;;10.40
68012;BMP180;54794;48.348;7.878;2023-04-01T07:53:50;97885.00;;;10.30
68012;BMP180;54794;48.348;7.878;2023-04-01T07:56:42;97885.00;;;10.30
68012;BMP180;54794;48.348;7.878;2023-04-01T08:08:19;97894.00;;;10.40
68012;BMP180;54794;48.348;7.878;2023-04-01T08:11:27;97894.00;;;10.30
68012;BMP180;54794;48.348;7.878;2023-04-01T08:17:20;97908.00;;;10.30
68012;BMP180;54794;48.348;7.878;2023-04-01T08:22:51;97923.00;;;10.30
68012;BMP180;54794;48.348;7.878;2023-04-01T08:25:25;97912.00;;;10.30
68012;BMP180;54794;48.348;7.878;2023-04-01T08:28:21;97933.00;;;10.30
68012;BMP180;54794;48.348;7.878;2023-04-01T08:31:05;97917.00;;;10.30
68012;BMP180;54794;48.348;7.878;2023-04-01T08:33:34;97922.00;;;10.40
68012;BMP180;54794;48.348;7.878;2023-04-01T08:36:26;97927.00;;;10.30
68012;BMP180;54794;48.348;7.878;2023-04-01T08:39:06;97930.00;;;10.30
68012;BMP180;54794;48.348;7.878;2023-04-01T09:02:14;97935.00;;;10.20
68012;BMP180;54794;48.348;7.878;2023-04-01T09:05:34;97935.00;;;10.20
68012;BMP180;54794;48.348;7.878;2023-04-01T09:08:16;97931.00;;;10.20
68012;BMP180;54794;48.348;7.878;2023-04-01T09:14:02;97942.00;;;10.20
68012;BMP180;54794;48.348;7.878;2023-04-01T09:20:17;97950.00;;;10.30
68012;BMP180;54794;48.348;7.878;2023-04-01T09:34:57;97950.00;;;10.40
68012;BMP180;54794;48.348;7.878;2023-04-01T09:47:46;97966.00;;;10.40
68012;BMP180;54794;48.348;7.878;2023-04-01T09:50:46;97965.00;;;10.60
68012;BMP180;54794;48.348;7.878;2023-04-01T10:02:08;97962.00;;;10.60
68012;BMP180;54794;48.348;7.878;2023-04-01T10:14:25;97978.00;;;10.60
68012;BMP180;54794;48.348;7.878;2023-04-01T10:17:39;97981.00;;;10.60
68012;BMP180;54794;48.348;7.878;2023-04-01T10:46:38;97987.00;;;10.80
68012;BMP180;54794;48.348;7.878;2023-04-01T11:01:34;97997.00;;;10.40
68012;BMP180;54794;48.348;7.878;2023-04-01T11:13:49;97999.00;;;10.40
68012;BMP180;54794;48.348;7.878;2023-04-01T11:25:54;98001.00;;;10.50
68012;BMP180;54794;48.348;7.878;2023-04-01T11:32:02;98005.00;;;10.60
68012;BMP180;54794;48.348;7.878;2023-04-01T11:37:44;97999.00;;;10.60
68012;BMP180;54794;48.348;7.878;2023-04-01T11:40:45;98002.00;;;10.70
68012;BMP180;54794;48.348;7.878;2023-04-01T11:46:21;97999.00;;;10.50
68012;BMP180;54794;48.348;7.878;2023-04-01T11:49:00;98002.00;;;10.70
68012;BMP180;54794;48.348;7.878;2023-04-01T12:13:40;97992.00;;;11.40
68012;BMP180;54794;48.348;7.878;2023-04-01T12:16:41;98007.00;;;11.30
68012;BMP180;54794;48.348;7.878;2023-04-01T12:31:45;98022.00;;;11.10
68012;BMP180;54794;48.348;7.878;2023-04-01T12:37:25;98021.00;;;11.20
68012;BMP180;54794;48.348;7.878;2023-04-01T12:52:07;98013.00;;;11.50
68012;BMP180;54794;48.348;7.878;2023-04-01T12:57:53;98016.00;;;11.60
68012;BMP180;54794;48.348;7.878;2023-04-01T13:00:54;98015.00;;;11.60
68012;BMP180;54794;48.348;7.878;2023-04-01T13:15:24;98017.00;;;11.40
68012;BMP180;54794;48.348;7.878;2023-04-01T13:18:04;98012.00;;;11.40
68012;BMP180;54794;48.348;7.878;2023-04-01T13:23:55;98028.00;;;11.50
68012;BMP180;54794;48.348;7.878;2023-04-01T13:29:25;98016.00;;;11.80
68012;BMP180;54794;48.348;7.878;2023-04-01T13:38:19;98018.00;;;11.60
68012;BMP180;54794;48.348;7.878;2023-04-01T13:41:32;98024.00;;;11.60
68012;BMP180;54794;48.348;7.878;2023-04-01T13:44:30;98030.00;;;11.60
68012;BMP180;54794;48.348;7.878;2023-04-01T13:47:57;98026.00;;;11.60
68012;BMP180;54794;48.348;7.878;2023-04-01T13:56:45;98042.00;;;11.50
68012;BMP180;54794;48.348;7.878;2023-04-01T14:02:50;98049.00;;;11.60
68012;BMP180;54794;48.348;7.878;2023-04-01T14:17:10;98056.00;;;11.70
68012;BMP180;54794;48.348;7.878;2023-04-01T14:23:42;98051.00;;;11.80
68012;BMP180;54794;48.348;7.878;2023-04-01T14:26:42;98047.00;;;11.90
68012;BMP180;54794;48.348;7.878;2023-04-01T14:29:28;98045.00;;;11.90
68012;BMP180;54794;48.348;7.878;2023-04-01T14:38:12;98042.00;;;11.90
68012;BMP180;54794;48.348;7.878;2023-04-01T14:41:00;98033.00;;;12.10
68012;BMP180;54794;48.348;7.878;2023-04-01T14:44:00;98036.00;;;12.10
68012;BMP180;54794;48.348;7.878;2023-04-01T14:47:19;98034.00;;;12.10
68012;BMP180;54794;48.348;7.878;2023-04-01T14:50:02;98022.00;;;12.10
68012;BMP180;54794;48.348;7.878;2023-04-01T14:52:32;98021.00;;;12.30
68012;BMP180;54794;48.348;7.878;2023-04-01T14:55:18;98013.00;;;12.40
68012;BMP180;54794;48.348;7.878;2023-04-01T14:58:08;98008.00;;;12.50
68012;BMP180;54794;48.348;7.878;2023-04-01T15:00:55;98010.00;;;12.60
68012;BMP180;54794;48.348;7.878;2023-04-01T15:03:40;98011.00;;;12.60
68012;BMP180;54794;48.348;7.878;2023-04-01T15:09:26;97997.00;;;12.50
68012;BMP180;54794;48.348;7.878;2023-04-01T15:14:51;98006.00;;;12.50
68012;BMP180;54794;48.348;7.878;2023-04-01T15:26:30;98041.00;;;12.20
68012;BMP180;54794;48.348;7.878;2023-04-01T15:29:42;98027.00;;;12.30
68012;BMP180;54794;48.348;7.878;2023-04-01T15:41:11;98021.00;;;12.20
68012;BMP180;54794;48.348;7.878;2023-04-01T15:43:46;98025.00;;;12.10
68012;BMP180;54794;48.348;7.878;2023-04-01T15:49:39;98030.00;;;12.20
68012;BMP180;54794;48.348;7.878;2023-04-01T15:52:55;98031.00;;;12.20
68012;BMP180;54794;48.348;7.878;2023-04-01T16:02:10;98048.00;;;12.40
68012;BMP180;54794;48.348;7.878;2023-04-01T16:07:46;98043.00;;;12.40
68012;BMP180;54794;48.348;7.878;2023-04-01T16:16:28;98059.00;;;12.30
68012;BMP180;54794;48.348;7.878;2023-04-01T16:22:38;98040.00;;;12.10
68012;BMP180;54794;48.348;7.878;2023-04-01T16:25:39;98056.00;;;12.10
68012;BMP180;54794;48.348;7.878;2023-04-01T16:28:23;98045.00;;;12.30
68012;BMP180;54794;48.348;7.878;2023-04-01T16:30:59;98054.00;;;12.20
68012;BMP180;54794;48.348;7.878;2023-04-01T16:47:48;98046.00;;;12.00
68012;BMP180;54794;48.348;7.878;2023-04-01T16:50:42;98038.00;;;12.00
68012;BMP180;54794;48.348;7.878;2023-04-01T16:58:59;98045.00;;;11.90
68012;BMP180;54794;48.348;7.878;2023-04-01T17:01:31;98055.00;;;12.00
68012;BMP180;54794;48.348;7.878;2023-04-01T17:06:54;98067.00;;;11.70
68012;BMP180;54794;48.348;7.878;2023-04-01T17:12:07;98075.00;;;11.80
68012;BMP180;54794;48.348;7.878;2023-04-01T17:15:05;98069.00;;;11.70
68012;BMP180;54794;48.348;7.878;2023-04-01T17:18:45;98073.00;;;11.80
68012;BMP180;54794;48.348;7.878;2023-04-01T17:24:22;98066.00;;;11.70
68012;BMP180;54794;48.348;7.878;2023-04-01T17:31:05;98070.00;;;11.60
68012;BMP180;54794;48.348;7.878;2023-04-01T17:42:15;98080.00;;;11.60
68012;BMP180;54794;48.348;7.878;2023-04-01T17:47:41;98100.00;;;11.60
68012;BMP180;54794;48.348;7.878;2023-04-01T17:50:44;98108.00;;;11.60
68012;BMP180;54794;48.348;7.878;2023-04-01T17:53:37;98115.00;;;11.70
68012;BMP180;54794;48.348;7.878;2023-04-01T17:59:24;98113.00;;;11.80
68012;BMP180;54794;48.348;7.878;2023-04-01T18:02:16;98126.00;;;11.50
68012;BMP180;54794;48.348;7.878;2023-04-01T18:25:36;98142.00;;;11.60
68012;BMP180;54794;48.348;7.878;2023-04-01T18:31:09;98140.00;;;11.60
68012;BMP180;54794;48.348;7.878;2023-04-01T18:34:12;98149.00;;;11.60
68012;BMP180;54794;48.348;7.878;2023-04-01T18:36:50;98142.00;;;11.50
68012;BMP180;54794;48.348;7.878;2023-04-01T18:39:39;98147.00;;;11.70
68012;BMP180;54794;48.348;7.878;2023-04-01T18:42:17;98145.00;;;11.60
68012;BMP180;54794;48.348;7.878;2023-04-01T18:45:17;98154.00;;;11.60
68012;BMP180;54794;48.348;7.878;2023-04-01T18:48:33;98147.00;;;11.60
68012;BMP180;54794;48.348;7.878;2023-04-01T18:52:08;98137.00;;;11.60
68012;BMP180;54794;48.348;7.878;2023-04-01T18:57:21;98150.00;;;11.50
68012;BMP180;54794;48.348;7.878;2023-04-01T19:00:41;98165.00;;;11.40
68012;BMP180;54794;48.348;7.878;2023-04-01T19:03:20;98153.00;;;11.40
68012;BMP180;54794;48.348;7.878;2023-04-01T19:05:52;98154.00;;;11.30
68012;BMP180;54794;48.348;7.878;2023-04-01T19:08:35;98164.00;;;11.20
68012;BMP180;54794;48.348;7.878;2023-04-01T19:11:36;98171.00;;;11.10
68012;BMP180;54794;48.348;7.878;2023-04-01T19:17:45;98174.00;;;11.10
68012;BMP180;54794;48.348;7.878;2023-04-01T19:23:31;98181.00;;;11.00
68012;BMP180;54794;48.348;7.878;2023-04-01T19:26:05;98180.00;;;11.00
68012;BMP180;54794;48.348;7.878;2023-04-01T19:40:17;98193.00;;;10.90
68012;BMP180;54794;48.348;7.878;2023-04-01T19:43:39;98190.00;;;11.00
68012;BMP180;54794;48.348;7.878;2023-04-01T19:52:31;98241.00;;;10.70
68012;BMP180;54794;48.348;7.878;2023-04-01T19:58:17;98252.00;;;10.80
68012;BMP180;54794;48.348;7.878;2023-04-01T20:00:53;98248.00;;;10.60
68012;BMP180;54794;48.348;7.878;2023-04-01T20:03:57;98244.00;;;10.80
68012;BMP180;54794;48.348;7.878;2023-04-01T20:10:07;98268.00;;;10.80
68012;BMP180;54794;48.348;7.878;2023-04-01T20:13:16;98283.00;;;10.90
68012;BMP180;54794;48.348;7.878;2023-04-01T20:16:06;98294.00;;;10.60
68012;BMP180;54794;48.348;7.878;2023-04-01T20:18:39;98287.00;;;10.90
68012;BMP180;54794;48.348;7.878;2023-04-01T20:21:58;98304.00;;;10.50
68012;BMP180;54794;48.348;7.878;2023-04-01T20:24:37;98308.00;;;10.80
68012;BMP180;54794;48.348;7.878;2023-04-01T20:27:16;98313.00;;;10.60
68012;BMP180;54794;48.348;7.878;2023-04-01T20:39:27;98323.00;;;10.50
68012;BMP180;54794;48.348;7.878;2023-04-01T20:51:06;98327.00;;;10.80
68012;BMP180;54794;48.348;7.878;2023-04-01T20:53:58;98347.00;;;10.90
68012;BMP180;54794;48.348;7.878;2023-04-01T20:57:04;98349.00;;;10.60
68012;BMP180;54794;48.348;7.878;2023-04-01T21:05:55;98331.00;;;10.80
68012;BMP180;54794;48.348;7.878;2023-04-01T21:11:46;98344.00;;;10.70
68012;BMP180;54794;48.348;7.878;2023-04-01T21:42:15;98342.00;;;10.50
68012;BMP180;54794;48.348;7.878;2023-04-01T21:45:03;98352.00;;;10.50
68012;BMP180;54794;48.348;7.878;2023-04-01T21:51:15;98353.00;;;10.00
68012;BMP180;54794;48.348;7.878;2023-04-01T21:57:38;98359.00;;;10.30
68012;BMP180;54794;48.348;7.878;2023-04-01T22:00:24;98367.00;;;10.10
68012;BMP180;54794;48.348;7.878;2023-04-01T22:12:01;98352.00;;;10.40
68012;BMP180;54794;48.348;7.878;2023-04-01T22:32:00;98371.00;;;10.10
68012;BMP180;54794;48.348;7.878;2023-04-01T22:35:02;98369.00;;;10.40
68012;BMP180;54794;48.348;7.878;2023-04-01T22:41:20;98365.00;;;10.20
68012;BMP180;54794;48.348;7.878;2023-04-01T22:43:50;98356.00;;;10.30
68012;BMP180;54794;48.348;7.878;2023-04-01T22:49:20;98359.00;;;10.30
68012;BMP180;54794;48.348;7.878;2023-04-01T22:52:05;98358.00;;;10.10
68012;BMP180;54794;48.348;7.878;2023-04-01T22:55:03;98363.00;;;10.20
68012;BMP180;54794;48.348;7.878;2023-04-01T22:57:48;98361.00;;;10.10
68012;BMP180;54794;48.348;7.878;2023-04-01T23:00:45;98367.00;;;10.10
68012;BMP180;54794;48.348;7.878;2023-04-01T23:03:30;98365.00;;;10.30
68012;BMP180;54794;48.348;7.878;2023-04-01T23:06:03;98363.00;;;10.20
68012;BMP180;54794;48.348;7.878;2023-04-01T23:09:29;98362.00;;;10.30
68012;BMP180;54794;48.348;7.878;2023-04-01T23:12:13;98370.00;;;10.20
68012;BMP180;54794;48.348;7.878;2023-04-01T23:14:50;98369.00;;;10.10
68012;BMP180;54794;48.348;7.878;2023-04-01T23:17:40;98376.00;;;10.10
68012;BMP180;54794;48.348;7.878;2023-04-01T23:25:54;98367.00;;;10.10
68012;BMP180;54794;48.348;7.878;2023-04-01T23:28:52;98382.00;;;10.10
68012;BMP180;54794;48.348;7.878;2023-04-01T23:31:47;98374.00;;;10.10
68012;BMP180;54794;48.348;7.878;2023-04-01T23:34:21;98375.00;;;9.90
68012;BMP180;54794;48.348;7.878;2023-04-01T23:37:11;98379.00;;;10.10
68012;BMP180;54794;48.348;7.878;2023-04-01T23:39:41;98378.00;;;10.10
68012;BMP180;54794;48.348;7.878;2023-04-01T23:42:28;98370.00;;;10.20
68012;BMP180;54794;48.348;7.878;2023-04-01T23:45:02;98379.00;;;9.90
68012;BMP180;54794;48.348;7.878;2023-04-01T23:47:33;98383.00;;;10.00
68012;BMP180;54794;48.348;7.878;2023-04-01T23:50:07;98387.00;;;10.10
68012;BMP180;54794;48.348;7.878;2023-04-01T23:52:52;98384.00;;;10.10
68012;BMP180;54794;48.348;7.878;2023-04-01T23:55:31;98384.00;;;10.30
